createdAt,value
2017-10-13T00:00:18.500Z,12.78
2017-10-13T00:01:18.611Z,12.81
2017-10-13T00:02:18.600Z,12.82
2017-10-13T00:03:18.644Z,12.84
2017-10-13T00:04:18.690Z,12.93
2017-10-13T00:05:18.737Z,12.82
2017-10-13T00:06:18.858Z,12.82
2017-10-13T00:07:18.833Z,12.92
2017-10-13T00:08:18.882Z,12.96
2017-10-13T00:09:18.929Z,12.81
2017-10-13T00:10:18.975Z,12.85
2017-10-13T00:11:19.091Z,12.93
2017-10-13T00:12:19.074Z,12.92
2017-10-13T00:13:19.124Z,12.99
2017-10-13T00:14:19.170Z,12.97
2017-10-13T00:15:19.216Z,12.95
2017-10-13T00:16:19.329Z,12.99
2017-10-13T00:17:19.313Z,13.02
2017-10-13T00:18:19.363Z,12.97
2017-10-13T00:19:19.411Z,13.00
2017-10-13T00:20:19.461Z,13.03
2017-10-13T00:21:19.586Z,12.96
2017-10-13T00:22:19.555Z,12.93
2017-10-13T00:23:19.604Z,13.09
2017-10-13T00:24:19.650Z,13.02
2017-10-13T00:25:19.700Z,12.99
2017-10-13T00:26:19.818Z,13.06
2017-10-13T00:27:19.796Z,13.02
2017-10-13T00:28:19.843Z,13.03
2017-10-13T00:29:19.892Z,13.11
2017-10-13T00:30:19.942Z,13.14
2017-10-13T00:31:20.052Z,13.11
2017-10-13T00:32:20.035Z,13.11
2017-10-13T00:33:20.084Z,13.07
2017-10-13T00:34:20.139Z,13.21
2017-10-13T00:35:20.183Z,13.18
2017-10-13T00:36:20.310Z,13.30
2017-10-13T00:37:20.276Z,13.29
2017-10-13T00:38:20.325Z,13.32
2017-10-13T00:39:20.372Z,13.36
2017-10-13T00:40:20.421Z,13.44
2017-10-13T00:41:20.540Z,13.47
2017-10-13T00:42:20.518Z,13.38
2017-10-13T00:43:20.570Z,13.49
2017-10-13T00:44:20.613Z,13.47
2017-10-13T00:45:20.663Z,13.52
2017-10-13T00:46:20.781Z,13.56
2017-10-13T00:47:20.824Z,13.61
2017-10-13T00:48:20.805Z,13.55
2017-10-13T00:49:20.855Z,13.54
2017-10-13T00:50:20.905Z,13.55
2017-10-13T00:51:20.953Z,13.55
2017-10-13T00:52:21.064Z,13.58
2017-10-13T00:53:21.046Z,13.65
2017-10-13T00:54:21.093Z,13.67
2017-10-13T00:55:21.146Z,13.63
2017-10-13T00:56:21.199Z,13.69
2017-10-13T00:57:21.318Z,13.58
2017-10-13T00:58:21.291Z,13.62
2017-10-13T00:59:21.335Z,13.62
2017-10-13T01:00:21.390Z,13.70
2017-10-13T01:01:21.434Z,13.63
2017-10-13T01:02:21.547Z,13.67
2017-10-13T01:03:21.550Z,13.59
2017-10-13T01:04:21.579Z,13.63
2017-10-13T01:05:21.631Z,13.69
2017-10-13T01:06:21.676Z,13.71
2017-10-13T01:07:21.788Z,13.71
2017-10-13T01:08:21.796Z,13.70
2017-10-13T01:09:21.821Z,13.74
2017-10-13T01:10:21.870Z,13.71
2017-10-13T01:11:21.919Z,13.70
2017-10-13T01:12:22.030Z,13.69
2017-10-13T01:13:22.016Z,13.74
2017-10-13T01:14:22.065Z,13.73
2017-10-13T01:15:22.111Z,13.76
2017-10-13T01:16:22.158Z,13.77
2017-10-13T01:17:22.273Z,13.77
2017-10-13T01:18:22.257Z,13.71
2017-10-13T01:19:22.312Z,13.80
2017-10-13T01:20:22.352Z,13.74
2017-10-13T01:21:22.402Z,13.77
2017-10-13T01:22:22.851Z,13.81
2017-10-13T01:23:23.833Z,13.79
2017-10-13T01:24:22.548Z,13.77
2017-10-13T01:25:22.628Z,13.74
2017-10-13T01:26:22.643Z,13.70
2017-10-13T01:27:22.775Z,13.69
2017-10-13T01:28:22.739Z,13.69
2017-10-13T01:29:22.789Z,13.74
2017-10-13T01:30:22.836Z,13.67
2017-10-13T01:31:22.885Z,13.74
2017-10-13T01:32:23.017Z,13.63
2017-10-13T01:33:22.979Z,13.70
2017-10-13T01:34:23.030Z,13.73
2017-10-13T01:35:23.079Z,13.73
2017-10-13T01:36:23.136Z,13.69
2017-10-13T01:37:23.250Z,13.65
2017-10-13T01:38:23.225Z,13.71
2017-10-13T01:39:23.269Z,13.61
2017-10-13T01:40:23.321Z,13.56
2017-10-13T01:41:23.847Z,13.62
2017-10-13T01:42:23.494Z,13.58
2017-10-13T01:43:23.466Z,13.54
2017-10-13T01:44:23.513Z,13.52
2017-10-13T01:45:23.562Z,13.52
2017-10-13T01:46:23.611Z,13.58
2017-10-13T01:47:24.350Z,13.47
2017-10-13T01:48:23.708Z,13.56
2017-10-13T01:49:23.757Z,13.49
2017-10-13T01:50:23.801Z,13.51
2017-10-13T01:51:23.853Z,13.41
2017-10-13T01:52:23.963Z,13.44
2017-10-13T01:53:24.013Z,13.38
2017-10-13T01:54:23.998Z,13.29
2017-10-13T01:55:24.045Z,13.30
2017-10-13T01:56:24.089Z,13.30
2017-10-13T01:57:24.142Z,13.36
2017-10-13T01:58:24.257Z,13.30
2017-10-13T01:59:24.237Z,13.36
2017-10-13T02:00:24.287Z,13.33
2017-10-13T02:01:24.333Z,13.29
2017-10-13T02:02:24.383Z,13.21
2017-10-13T02:03:24.498Z,13.29
2017-10-13T02:04:24.478Z,13.20
2017-10-13T02:05:24.525Z,13.20
2017-10-13T02:06:24.578Z,13.20
2017-10-13T02:07:24.624Z,13.18
2017-10-13T02:08:24.740Z,13.24
2017-10-13T02:09:24.720Z,13.20
2017-10-13T02:10:24.769Z,13.09
2017-10-13T02:11:24.817Z,13.11
2017-10-13T02:12:24.871Z,13.07
2017-10-13T02:13:24.988Z,13.00
2017-10-13T02:14:24.962Z,12.99
2017-10-13T02:15:25.010Z,13.00
2017-10-13T02:16:25.058Z,12.89
2017-10-13T02:17:25.109Z,13.03
2017-10-13T02:18:25.227Z,12.99
2017-10-13T02:19:25.203Z,12.95
2017-10-13T02:20:25.250Z,12.96
2017-10-13T02:21:25.302Z,12.87
2017-10-13T02:22:25.345Z,12.85
2017-10-13T02:23:25.477Z,12.81
2017-10-13T02:24:25.445Z,12.81
2017-10-13T02:25:25.512Z,12.79
2017-10-13T02:26:25.540Z,12.79
2017-10-13T02:27:25.590Z,12.75
2017-10-13T02:28:25.713Z,12.70
2017-10-13T02:29:25.680Z,12.71
2017-10-13T02:30:25.733Z,12.63
2017-10-13T02:31:25.779Z,12.71
2017-10-13T02:32:25.831Z,12.64
2017-10-13T02:33:25.939Z,12.66
2017-10-13T02:34:25.989Z,12.60
2017-10-13T02:35:25.971Z,12.60
2017-10-13T02:36:26.021Z,12.48
2017-10-13T02:37:26.069Z,12.51
2017-10-13T02:38:26.116Z,12.44
2017-10-13T02:39:26.229Z,12.45
2017-10-13T02:40:26.208Z,12.45
2017-10-13T02:41:26.273Z,12.37
2017-10-13T02:42:26.311Z,12.38
2017-10-13T02:43:26.355Z,12.37
2017-10-13T02:44:26.466Z,12.39
2017-10-13T02:45:26.451Z,12.39
2017-10-13T02:46:26.500Z,12.41
2017-10-13T02:47:26.550Z,12.26
2017-10-13T02:48:26.597Z,12.29
2017-10-13T02:49:26.708Z,12.27
2017-10-13T02:50:26.689Z,12.26
2017-10-13T02:51:26.737Z,12.27
2017-10-13T02:52:26.786Z,12.29
2017-10-13T02:53:26.840Z,12.19
2017-10-13T02:54:26.946Z,12.20
2017-10-13T02:55:26.929Z,12.15
2017-10-13T02:56:26.981Z,12.13
2017-10-13T02:57:27.025Z,12.13
2017-10-13T02:58:27.077Z,12.11
2017-10-13T02:59:27.187Z,12.08
2017-10-13T03:00:27.168Z,12.05
2017-10-13T03:01:27.215Z,12.01
2017-10-13T03:02:27.264Z,11.96
2017-10-13T03:03:27.319Z,11.93
2017-10-13T03:04:27.426Z,11.90
2017-10-13T03:05:27.406Z,11.94
2017-10-13T03:06:27.456Z,11.89
2017-10-13T03:07:27.502Z,11.86
2017-10-13T03:08:27.557Z,11.80
2017-10-13T03:09:27.665Z,11.85
2017-10-13T03:10:27.645Z,11.78
2017-10-13T03:11:27.695Z,11.80
2017-10-13T03:12:27.744Z,11.72
2017-10-13T03:13:27.788Z,11.68
2017-10-13T03:14:27.900Z,11.61
2017-10-13T03:15:27.884Z,11.57
2017-10-13T03:16:27.934Z,11.64
2017-10-13T03:17:27.978Z,11.64
2017-10-13T03:18:28.027Z,11.50
2017-10-13T03:19:28.136Z,11.50
2017-10-13T03:20:28.120Z,11.56
2017-10-13T03:21:28.169Z,11.46
2017-10-13T03:22:28.215Z,11.46
2017-10-13T03:23:28.265Z,11.41
2017-10-13T03:24:28.378Z,11.41
2017-10-13T03:25:28.358Z,11.36
2017-10-13T03:26:28.406Z,11.39
2017-10-13T03:27:28.457Z,11.44
2017-10-13T03:28:28.499Z,11.41
2017-10-13T03:29:28.634Z,11.39
2017-10-13T03:30:28.596Z,11.44
2017-10-13T03:31:28.644Z,11.39
2017-10-13T03:32:28.691Z,11.41
2017-10-13T03:33:28.737Z,11.39
2017-10-13T03:34:28.866Z,11.44
2017-10-13T03:35:28.836Z,11.41
2017-10-13T03:36:28.880Z,11.31
2017-10-13T03:37:28.927Z,11.34
2017-10-13T03:38:28.973Z,11.36
2017-10-13T03:39:29.105Z,11.27
2017-10-13T03:40:29.078Z,11.14
2017-10-13T03:41:29.119Z,11.19
2017-10-13T03:42:29.169Z,11.28
2017-10-13T03:43:29.212Z,11.20
2017-10-13T03:44:29.343Z,11.19
2017-10-13T03:45:29.306Z,11.17
2017-10-13T03:46:29.351Z,11.17
2017-10-13T03:47:29.402Z,11.27
2017-10-13T03:48:29.449Z,11.27
2017-10-13T03:49:29.577Z,11.13
2017-10-13T03:50:29.542Z,11.17
2017-10-13T03:51:29.589Z,11.14
2017-10-13T03:52:29.638Z,11.06
2017-10-13T03:53:29.688Z,11.09
2017-10-13T03:54:29.800Z,11.09
2017-10-13T03:55:29.845Z,11.16
2017-10-13T03:56:29.825Z,11.11
2017-10-13T03:57:29.872Z,11.10
2017-10-13T03:58:29.921Z,11.09
2017-10-13T03:59:29.968Z,11.10
2017-10-13T04:00:30.078Z,11.11
2017-10-13T04:01:30.061Z,11.09
2017-10-13T04:02:30.108Z,11.10
2017-10-13T04:03:30.166Z,11.10
2017-10-13T04:04:30.203Z,11.06
2017-10-13T04:05:30.314Z,11.09
2017-10-13T04:06:30.297Z,11.10
2017-10-13T04:07:30.344Z,11.10
2017-10-13T04:08:30.393Z,11.06
2017-10-13T04:09:30.440Z,11.07
2017-10-13T04:10:30.569Z,11.09
2017-10-13T04:11:30.536Z,11.06
2017-10-13T04:12:30.583Z,11.02
2017-10-13T04:13:30.631Z,11.02
2017-10-13T04:14:30.679Z,10.99
2017-10-13T04:15:30.786Z,11.01
2017-10-13T04:16:30.921Z,11.06
2017-10-13T04:17:30.816Z,10.99
2017-10-13T04:18:30.862Z,11.01
2017-10-13T04:19:30.910Z,10.88
2017-10-13T04:20:30.956Z,10.94
2017-10-13T04:21:31.069Z,10.88
2017-10-13T04:22:31.052Z,10.76
2017-10-13T04:23:31.099Z,10.80
2017-10-13T04:24:31.145Z,10.77
2017-10-13T04:25:31.190Z,10.83
2017-10-13T04:26:31.306Z,10.73
2017-10-13T04:27:31.288Z,10.73
2017-10-13T04:28:31.330Z,10.81
2017-10-13T04:29:31.382Z,10.77
2017-10-13T04:30:31.429Z,10.74
2017-10-13T04:31:31.540Z,10.81
2017-10-13T04:32:31.527Z,10.76
2017-10-13T04:33:31.569Z,10.74
2017-10-13T04:34:31.617Z,10.77
2017-10-13T04:35:31.662Z,10.73
2017-10-13T04:36:31.801Z,10.73
2017-10-13T04:37:31.758Z,10.73
2017-10-13T04:38:31.805Z,10.83
2017-10-13T04:39:31.852Z,10.78
2017-10-13T04:40:31.897Z,10.83
2017-10-13T04:41:32.008Z,10.78
2017-10-13T04:42:31.991Z,10.84
2017-10-13T04:43:32.040Z,10.78
2017-10-13T04:44:32.088Z,10.71
2017-10-13T04:45:32.132Z,10.76
2017-10-13T04:46:32.251Z,10.81
2017-10-13T04:47:32.228Z,10.70
2017-10-13T04:48:32.274Z,10.76
2017-10-13T04:49:32.341Z,10.81
2017-10-13T04:50:32.373Z,10.66
2017-10-13T04:51:32.480Z,10.77
2017-10-13T04:52:32.472Z,10.77
2017-10-13T04:53:32.511Z,10.74
2017-10-13T04:54:32.557Z,10.73
2017-10-13T04:55:32.605Z,10.73
2017-10-13T04:56:32.714Z,10.73
2017-10-13T04:57:32.697Z,10.81
2017-10-13T04:58:32.744Z,10.71
2017-10-13T04:59:32.790Z,10.77
2017-10-13T05:00:32.838Z,10.80
2017-10-13T05:01:33.003Z,10.78
2017-10-13T05:02:32.930Z,10.76
2017-10-13T05:03:32.980Z,10.77
2017-10-13T05:04:33.024Z,10.73
2017-10-13T05:05:33.073Z,10.68
2017-10-13T05:06:33.200Z,10.65
2017-10-13T05:07:33.167Z,10.58
2017-10-13T05:08:33.217Z,10.62
2017-10-13T05:09:33.260Z,10.62
2017-10-13T05:10:33.307Z,10.58
2017-10-13T05:11:33.442Z,10.60
2017-10-13T05:12:33.400Z,10.55
2017-10-13T05:13:33.447Z,10.65
2017-10-13T05:14:33.496Z,10.60
2017-10-13T05:15:33.547Z,10.62
2017-10-13T05:16:33.672Z,10.51
2017-10-13T05:17:33.637Z,10.53
2017-10-13T05:18:33.683Z,10.59
2017-10-13T05:19:33.730Z,10.55
2017-10-13T05:20:33.777Z,10.60
2017-10-13T05:21:33.887Z,10.58
2017-10-13T05:22:33.941Z,10.59
2017-10-13T05:23:33.927Z,10.60
2017-10-13T05:24:33.963Z,10.60
2017-10-13T05:25:34.010Z,10.56
2017-10-13T05:26:34.060Z,10.65
2017-10-13T05:27:34.175Z,10.56
2017-10-13T05:28:34.150Z,10.56
2017-10-13T05:29:34.196Z,10.63
2017-10-13T05:30:34.247Z,10.63
2017-10-13T05:31:34.292Z,10.60
2017-10-13T05:32:34.401Z,10.51
2017-10-13T05:33:34.384Z,10.53
2017-10-13T05:34:34.439Z,10.63
2017-10-13T05:35:34.479Z,10.56
2017-10-13T05:36:34.529Z,10.58
2017-10-13T05:37:34.679Z,10.47
2017-10-13T05:38:36.645Z,10.65
2017-10-13T05:39:34.667Z,10.58
2017-10-13T05:40:34.716Z,10.60
2017-10-13T05:41:34.758Z,10.58
2017-10-13T05:42:38.249Z,10.63
2017-10-13T05:43:34.854Z,10.65
2017-10-13T05:44:34.905Z,10.58
2017-10-13T05:45:34.946Z,10.62
2017-10-13T05:46:34.993Z,10.62
2017-10-13T05:47:36.788Z,10.65
2017-10-13T05:48:36.144Z,10.66
2017-10-13T05:49:35.134Z,10.59
2017-10-13T05:50:35.180Z,10.65
2017-10-13T05:51:35.229Z,10.68
2017-10-13T05:52:35.276Z,10.71
2017-10-13T05:53:35.392Z,10.59
2017-10-13T05:54:35.369Z,10.58
2017-10-13T05:55:35.416Z,10.68
2017-10-13T05:56:35.462Z,10.62
2017-10-13T05:57:35.510Z,10.77
2017-10-13T05:58:35.620Z,10.62
2017-10-13T05:59:35.603Z,10.62
2017-10-13T06:00:35.650Z,10.66
2017-10-13T06:01:35.696Z,10.62
2017-10-13T06:02:35.749Z,10.62
2017-10-13T06:03:35.970Z,10.66
2017-10-13T06:04:35.836Z,10.66
2017-10-13T06:05:35.883Z,10.74
2017-10-13T06:06:35.937Z,10.70
2017-10-13T06:07:35.978Z,10.77
2017-10-13T06:08:36.100Z,10.74
2017-10-13T06:09:36.073Z,10.71
2017-10-13T06:10:36.119Z,10.80
2017-10-13T06:11:36.165Z,10.83
2017-10-13T06:12:36.212Z,10.86
2017-10-13T06:13:36.445Z,11.01
2017-10-13T06:14:36.306Z,11.01
2017-10-13T06:15:36.353Z,11.09
2017-10-13T06:16:36.400Z,11.10
2017-10-13T06:17:36.447Z,11.10
2017-10-13T06:18:36.577Z,11.17
2017-10-13T06:19:36.548Z,11.21
2017-10-13T06:20:36.591Z,11.20
2017-10-13T06:21:36.632Z,11.19
2017-10-13T06:22:36.682Z,11.25
2017-10-13T06:23:36.793Z,11.25
2017-10-13T06:24:36.839Z,11.16
2017-10-13T06:25:36.822Z,11.19
2017-10-13T06:26:36.869Z,11.13
2017-10-13T06:27:36.916Z,11.16
2017-10-13T06:28:37.029Z,11.14
2017-10-13T06:29:37.081Z,11.19
2017-10-13T06:30:37.058Z,11.24
2017-10-13T06:31:37.105Z,11.16
2017-10-13T06:32:37.152Z,11.24
2017-10-13T06:33:37.198Z,11.16
2017-10-13T06:34:37.309Z,11.11
2017-10-13T06:35:37.297Z,11.11
2017-10-13T06:36:37.339Z,11.14
2017-10-13T06:37:37.391Z,11.14
2017-10-13T06:38:37.435Z,11.19
2017-10-13T06:39:37.549Z,11.25
2017-10-13T06:40:37.528Z,11.20
2017-10-13T06:41:37.574Z,11.32
2017-10-13T06:42:37.629Z,11.32
2017-10-13T06:43:37.668Z,11.39
2017-10-13T06:44:37.775Z,11.43
2017-10-13T06:45:37.764Z,11.50
2017-10-13T06:46:37.811Z,11.53
2017-10-13T06:47:37.857Z,11.54
2017-10-13T06:48:37.906Z,11.54
2017-10-13T06:49:38.015Z,11.65
2017-10-13T06:50:37.998Z,11.72
2017-10-13T06:51:38.047Z,11.75
2017-10-13T06:52:38.092Z,11.85
2017-10-13T06:53:38.140Z,11.82
2017-10-13T06:54:38.267Z,11.89
2017-10-13T06:55:38.236Z,11.93
2017-10-13T06:56:38.280Z,12.11
2017-10-13T06:57:38.327Z,12.11
2017-10-13T06:58:38.376Z,12.29
2017-10-13T06:59:38.488Z,12.38
2017-10-13T07:00:38.477Z,12.44
2017-10-13T07:01:38.519Z,12.52
2017-10-13T07:02:38.565Z,12.56
2017-10-13T07:03:38.613Z,12.62
2017-10-13T07:04:38.723Z,12.67
2017-10-13T07:05:38.772Z,12.75
2017-10-13T07:06:38.760Z,12.67
2017-10-13T07:07:38.801Z,12.78
2017-10-13T07:08:38.851Z,12.79
2017-10-13T07:09:38.898Z,12.79
2017-10-13T07:10:39.013Z,12.87
2017-10-13T07:11:38.993Z,12.88
2017-10-13T07:12:39.040Z,12.79
2017-10-13T07:13:39.089Z,12.89
2017-10-13T07:14:39.137Z,12.85
2017-10-13T07:15:39.249Z,12.81
2017-10-13T07:16:39.232Z,12.95
2017-10-13T07:17:39.280Z,12.99
2017-10-13T07:18:39.329Z,12.97
2017-10-13T07:19:39.378Z,12.99
2017-10-13T07:20:39.488Z,12.92
2017-10-13T07:21:39.471Z,13.11
2017-10-13T07:22:39.521Z,13.02
2017-10-13T07:23:39.567Z,13.15
2017-10-13T07:24:39.613Z,13.09
2017-10-13T07:25:39.742Z,13.21
2017-10-13T07:26:39.713Z,13.29
2017-10-13T07:27:39.937Z,13.43
2017-10-13T07:28:39.806Z,13.56
2017-10-13T07:29:39.855Z,13.51
2017-10-13T07:30:39.971Z,13.56
2017-10-13T07:31:40.309Z,13.62
2017-10-13T07:32:40.033Z,13.77
2017-10-13T07:33:40.047Z,13.88
2017-10-13T07:34:40.099Z,13.98
2017-10-13T07:35:40.143Z,14.19
2017-10-13T07:36:40.256Z,14.32
2017-10-13T07:37:40.239Z,14.21
2017-10-13T07:38:40.291Z,14.27
2017-10-13T07:39:40.337Z,14.27
2017-10-13T07:40:40.384Z,14.19
2017-10-13T07:41:40.635Z,14.29
2017-10-13T07:42:40.483Z,14.42
2017-10-13T07:43:40.530Z,14.35
2017-10-13T07:44:40.580Z,14.44
2017-10-13T07:45:40.626Z,14.49
2017-10-13T07:46:40.752Z,14.68
2017-10-13T07:47:40.726Z,14.75
2017-10-13T07:48:40.771Z,14.98
2017-10-13T07:49:40.821Z,15.08
2017-10-13T07:50:40.870Z,15.15
2017-10-13T07:51:41.001Z,15.13
2017-10-13T07:52:40.969Z,15.12
2017-10-13T07:53:41.015Z,15.13
2017-10-13T07:54:41.064Z,15.11
2017-10-13T07:55:41.120Z,15.06
2017-10-13T07:56:41.236Z,15.11
2017-10-13T07:57:41.276Z,15.12
2017-10-13T07:58:41.259Z,15.12
2017-10-13T07:59:41.308Z,15.19
2017-10-13T08:00:41.358Z,15.35
2017-10-13T08:01:41.407Z,15.54
2017-10-13T08:02:41.520Z,15.52
2017-10-13T08:03:41.508Z,15.54
2017-10-13T08:04:41.553Z,15.46
2017-10-13T08:05:41.610Z,15.24
2017-10-13T08:06:41.650Z,15.33
2017-10-13T08:07:41.764Z,15.26
2017-10-13T08:08:41.752Z,15.38
2017-10-13T08:09:41.804Z,15.33
2017-10-13T08:10:41.849Z,15.45
2017-10-13T08:11:41.900Z,15.57
2017-10-13T08:12:42.011Z,15.49
2017-10-13T08:13:41.997Z,15.57
2017-10-13T08:14:42.046Z,15.59
2017-10-13T08:15:42.095Z,15.30
2017-10-13T08:16:42.151Z,15.46
2017-10-13T08:17:42.257Z,15.61
2017-10-13T08:18:42.243Z,15.78
2017-10-13T08:19:42.292Z,15.82
2017-10-13T08:20:42.342Z,15.68
2017-10-13T08:21:42.398Z,16.09
2017-10-13T08:22:42.526Z,16.18
2017-10-13T08:23:42.636Z,16.23
2017-10-13T08:24:42.539Z,16.07
2017-10-13T08:25:42.591Z,16.11
2017-10-13T08:26:42.638Z,15.85
2017-10-13T08:27:42.754Z,15.39
2017-10-13T08:28:42.803Z,15.30
2017-10-13T08:29:42.791Z,15.21
2017-10-13T08:30:42.837Z,15.20
2017-10-13T08:31:42.888Z,15.15
2017-10-13T08:32:42.937Z,15.08
2017-10-13T08:33:43.049Z,14.95
2017-10-13T08:34:43.036Z,15.02
2017-10-13T08:35:43.085Z,14.94
2017-10-13T08:36:43.134Z,15.03
2017-10-13T08:37:43.184Z,15.06
2017-10-13T08:38:43.300Z,15.08
2017-10-13T08:39:43.282Z,15.13
2017-10-13T08:40:43.336Z,15.11
2017-10-13T08:41:43.391Z,15.02
2017-10-13T08:42:43.435Z,14.94
2017-10-13T08:43:43.545Z,14.84
2017-10-13T08:44:43.529Z,14.80
2017-10-13T08:45:43.581Z,14.71
2017-10-13T08:46:43.632Z,14.81
2017-10-13T08:47:43.679Z,14.75
2017-10-13T08:48:43.792Z,14.74
2017-10-13T08:49:43.778Z,14.74
2017-10-13T08:50:43.830Z,14.74
2017-10-13T08:51:44.748Z,14.75
2017-10-13T08:52:43.925Z,14.83
2017-10-13T08:53:44.039Z,14.68
2017-10-13T08:54:44.027Z,14.67
2017-10-13T08:55:44.074Z,14.62
2017-10-13T08:56:44.123Z,14.65
2017-10-13T08:57:44.173Z,14.64
2017-10-13T08:58:44.293Z,14.62
2017-10-13T08:59:44.275Z,14.62
2017-10-13T09:00:44.321Z,14.62
2017-10-13T09:01:44.364Z,14.65
2017-10-13T09:02:44.419Z,14.64
2017-10-13T09:03:44.532Z,14.60
2017-10-13T09:04:44.515Z,14.52
2017-10-13T09:05:44.570Z,14.43
2017-10-13T09:06:44.614Z,14.64
2017-10-13T09:07:44.667Z,14.86
2017-10-13T09:08:44.779Z,15.05
2017-10-13T09:09:44.763Z,15.19
2017-10-13T09:10:44.812Z,15.48
2017-10-13T09:11:44.864Z,15.88
2017-10-13T09:12:44.910Z,15.99
2017-10-13T09:13:45.024Z,15.99
2017-10-13T09:14:45.009Z,15.97
2017-10-13T09:15:45.061Z,16.00
2017-10-13T09:16:45.108Z,16.03
2017-10-13T09:17:45.157Z,16.01
2017-10-13T09:18:45.278Z,16.25
2017-10-13T09:19:45.258Z,16.26
2017-10-13T09:20:45.311Z,16.23
2017-10-13T09:21:45.357Z,16.30
2017-10-13T09:22:45.406Z,16.23
2017-10-13T09:23:45.525Z,16.20
2017-10-13T09:24:45.515Z,16.20
2017-10-13T09:25:45.564Z,15.92
2017-10-13T09:26:45.606Z,15.74
2017-10-13T09:27:45.655Z,15.64
2017-10-13T09:28:45.771Z,15.86
2017-10-13T09:29:45.759Z,16.06
2017-10-13T09:30:45.810Z,15.96
2017-10-13T09:31:45.856Z,15.60
2017-10-13T09:32:45.928Z,15.57
2017-10-13T09:33:46.258Z,15.46
2017-10-13T09:34:46.006Z,15.57
2017-10-13T09:35:46.058Z,15.97
2017-10-13T09:36:46.110Z,16.45
2017-10-13T09:37:46.155Z,17.25
2017-10-13T09:38:46.272Z,17.88
2017-10-13T09:39:46.261Z,18.59
2017-10-13T09:40:46.307Z,18.79
2017-10-13T09:41:46.360Z,19.05
2017-10-13T09:42:46.409Z,18.77
2017-10-13T09:43:46.525Z,18.24
2017-10-13T09:44:46.513Z,18.04
2017-10-13T09:45:46.564Z,18.03
2017-10-13T09:46:46.618Z,18.31
2017-10-13T09:47:46.666Z,18.82
2017-10-13T09:48:46.800Z,19.08
2017-10-13T09:49:46.773Z,19.43
2017-10-13T09:50:46.927Z,19.69
2017-10-13T09:51:46.877Z,20.13
2017-10-13T09:52:46.929Z,20.21
2017-10-13T09:53:47.052Z,20.33
2017-10-13T09:54:47.106Z,20.27
2017-10-13T09:55:47.090Z,19.84
2017-10-13T09:56:47.142Z,19.87
2017-10-13T09:57:47.205Z,19.68
2017-10-13T09:58:47.252Z,19.35
2017-10-13T09:59:47.367Z,18.86
2017-10-13T10:00:47.358Z,19.32
2017-10-13T10:01:47.413Z,19.63
2017-10-13T10:02:47.468Z,19.93
2017-10-13T10:03:47.525Z,19.95
2017-10-13T10:04:47.638Z,19.47
2017-10-13T10:05:47.626Z,19.43
2017-10-13T10:06:47.683Z,19.25
2017-10-13T10:07:47.738Z,18.65
2017-10-13T10:08:47.793Z,18.50
2017-10-13T10:09:47.911Z,18.55
2017-10-13T10:10:47.902Z,18.50
2017-10-13T10:11:47.956Z,17.97
2017-10-13T10:12:48.014Z,17.25
2017-10-13T10:13:48.069Z,16.88
2017-10-13T10:14:48.205Z,16.63
2017-10-13T10:15:48.175Z,16.70
2017-10-13T10:16:48.227Z,16.78
2017-10-13T10:17:48.282Z,17.06
2017-10-13T10:18:48.336Z,17.55
2017-10-13T10:19:48.468Z,18.25
2017-10-13T10:20:48.443Z,18.70
2017-10-13T10:21:48.498Z,18.29
2017-10-13T10:22:48.555Z,18.39
2017-10-13T10:23:48.607Z,18.54
2017-10-13T10:24:48.725Z,18.33
2017-10-13T10:25:48.774Z,17.88
2017-10-13T10:26:48.795Z,17.92
2017-10-13T10:27:48.831Z,17.79
2017-10-13T10:28:48.872Z,17.73
2017-10-13T10:29:48.925Z,17.95
2017-10-13T10:30:49.049Z,18.02
2017-10-13T10:31:49.042Z,17.59
2017-10-13T10:32:49.091Z,17.71
2017-10-13T10:33:49.137Z,18.02
2017-10-13T10:34:49.192Z,18.19
2017-10-13T10:35:49.318Z,17.81
2017-10-13T10:36:49.299Z,18.22
2017-10-13T10:37:49.351Z,18.77
2017-10-13T10:38:49.405Z,18.92
2017-10-13T10:39:49.457Z,19.55
2017-10-13T10:40:49.577Z,19.86
2017-10-13T10:41:49.564Z,20.18
2017-10-13T10:42:49.618Z,19.55
2017-10-13T10:43:49.673Z,19.32
2017-10-13T10:44:49.731Z,19.72
2017-10-13T10:45:49.841Z,19.94
2017-10-13T10:46:49.835Z,20.18
2017-10-13T10:47:49.886Z,20.20
2017-10-13T10:48:49.938Z,20.02
2017-10-13T10:49:49.999Z,19.84
2017-10-13T10:50:50.111Z,19.69
2017-10-13T10:51:50.100Z,19.47
2017-10-13T10:52:50.160Z,19.31
2017-10-13T10:53:50.212Z,19.32
2017-10-13T10:54:50.271Z,19.39
2017-10-13T10:55:50.385Z,19.68
2017-10-13T10:56:50.381Z,19.60
2017-10-13T10:57:50.425Z,19.20
2017-10-13T10:58:50.482Z,18.98
2017-10-13T10:59:50.540Z,19.10
2017-10-13T11:00:50.652Z,19.08
2017-10-13T11:01:50.650Z,18.49
2017-10-13T11:02:50.701Z,18.54
2017-10-13T11:03:50.752Z,18.83
2017-10-13T11:04:50.811Z,19.11
2017-10-13T11:05:50.936Z,19.05
2017-10-13T11:06:50.920Z,18.79
2017-10-13T11:07:50.974Z,18.86
2017-10-13T11:08:51.027Z,19.10
2017-10-13T11:09:51.089Z,19.47
2017-10-13T11:10:51.381Z,19.84
2017-10-13T11:11:51.190Z,20.38
2017-10-13T11:12:51.243Z,20.50
2017-10-13T11:13:51.297Z,20.81
2017-10-13T11:14:51.351Z,20.79
2017-10-13T11:15:51.467Z,20.35
2017-10-13T11:16:51.461Z,20.65
2017-10-13T11:17:51.512Z,20.62
2017-10-13T11:18:51.573Z,20.80
2017-10-13T11:19:51.624Z,20.95
2017-10-13T11:20:51.740Z,21.13
2017-10-13T11:21:51.731Z,21.24
2017-10-13T11:22:51.786Z,21.08
2017-10-13T11:23:51.843Z,21.26
2017-10-13T11:24:51.898Z,21.34
2017-10-13T11:25:52.016Z,21.34
2017-10-13T11:26:52.008Z,21.48
2017-10-13T11:27:52.062Z,20.84
2017-10-13T11:28:52.126Z,20.90
2017-10-13T11:29:52.173Z,20.50
2017-10-13T11:30:52.295Z,19.40
2017-10-13T11:31:52.283Z,19.58
2017-10-13T11:32:52.340Z,19.31
2017-10-13T11:33:52.398Z,19.63
2017-10-13T11:34:52.452Z,19.28
2017-10-13T11:35:52.570Z,19.28
2017-10-13T11:36:52.562Z,19.36
2017-10-13T11:37:52.619Z,19.70
2017-10-13T11:38:52.681Z,20.24
2017-10-13T11:39:52.728Z,20.53
2017-10-13T11:40:52.849Z,20.47
2017-10-13T11:41:52.840Z,19.69
2017-10-13T11:42:52.897Z,19.70
2017-10-13T11:43:52.949Z,18.80
2017-10-13T11:44:53.004Z,18.98
2017-10-13T11:45:53.138Z,18.90
2017-10-13T11:46:53.116Z,19.02
2017-10-13T11:47:53.171Z,19.18
2017-10-13T11:48:53.225Z,19.13
2017-10-13T11:49:53.283Z,18.84
2017-10-13T11:50:53.418Z,18.91
2017-10-13T11:51:53.389Z,18.84
2017-10-13T11:52:53.449Z,19.23
2017-10-13T11:53:53.501Z,19.35
2017-10-13T11:54:53.566Z,19.70
2017-10-13T11:55:53.696Z,19.02
2017-10-13T11:56:53.665Z,18.54
2017-10-13T11:57:53.719Z,18.64
2017-10-13T11:58:53.774Z,18.72
2017-10-13T11:59:53.826Z,18.77
2017-10-13T12:00:53.965Z,18.82
2017-10-13T12:01:53.935Z,18.55
2017-10-13T12:02:53.991Z,18.49
2017-10-13T12:03:54.045Z,18.80
2017-10-13T12:04:54.097Z,18.83
2017-10-13T12:05:54.236Z,19.14
2017-10-13T12:06:54.206Z,19.18
2017-10-13T12:07:54.261Z,19.70
2017-10-13T12:08:54.313Z,19.78
2017-10-13T12:09:54.367Z,19.94
2017-10-13T12:10:54.490Z,20.10
2017-10-13T12:11:54.476Z,20.62
2017-10-13T12:12:54.534Z,20.71
2017-10-13T12:13:54.583Z,20.61
2017-10-13T12:14:54.640Z,20.47
2017-10-13T12:15:54.775Z,20.50
2017-10-13T12:16:54.747Z,20.81
2017-10-13T12:17:54.807Z,20.74
2017-10-13T12:18:54.859Z,20.87
2017-10-13T12:19:54.915Z,21.06
2017-10-13T12:20:55.040Z,21.39
2017-10-13T12:21:55.086Z,21.56
2017-10-13T12:22:55.081Z,21.72
2017-10-13T12:23:55.135Z,21.63
2017-10-13T12:24:55.194Z,21.78
2017-10-13T12:25:55.246Z,21.61
2017-10-13T12:26:55.373Z,21.75
2017-10-13T12:27:55.359Z,21.78
2017-10-13T12:28:55.416Z,21.82
2017-10-13T12:29:55.470Z,21.79
2017-10-13T12:30:55.527Z,21.81
2017-10-13T12:31:55.649Z,21.83
2017-10-13T12:32:55.640Z,21.56
2017-10-13T12:33:55.705Z,21.66
2017-10-13T12:34:55.769Z,21.53
2017-10-13T12:35:55.813Z,21.29
2017-10-13T12:36:55.930Z,20.87
2017-10-13T12:37:55.935Z,20.65
2017-10-13T12:38:55.981Z,20.28
2017-10-13T12:39:56.039Z,20.06
2017-10-13T12:40:56.096Z,19.73
2017-10-13T12:41:56.216Z,19.51
2017-10-13T12:42:56.208Z,19.51
2017-10-13T12:43:56.268Z,19.31
2017-10-13T12:44:56.322Z,19.20
2017-10-13T12:45:56.377Z,19.31
2017-10-13T12:46:56.515Z,19.33
2017-10-13T12:47:56.486Z,19.39
2017-10-13T12:48:56.540Z,19.25
2017-10-13T12:49:56.595Z,19.23
2017-10-13T12:50:56.650Z,18.91
2017-10-13T12:51:56.789Z,18.82
2017-10-13T12:52:57.337Z,18.77